createdAt,value
2023-02-19T00:01:35.737Z,99130.03
2023-02-19T00:04:05.456Z,99126.72
2023-02-19T00:06:34.518Z,99125.59
2023-02-19T00:09:01.527Z,99101.19
2023-02-19T00:11:30.386Z,99100.41
2023-02-19T00:13:58.583Z,99092.28
2023-02-19T00:16:27.321Z,99114.75
2023-02-19T00:18:55.142Z,99097.88
2023-02-19T00:21:23.777Z,99101.69
2023-02-19T00:23:50.973Z,99113.03
2023-02-19T00:26:19.019Z,99128.19
2023-02-19T00:28:46.353Z,99153.88
2023-02-19T00:31:17.056Z,99125.31
2023-02-19T00:33:43.908Z,99109.84
2023-02-19T00:36:10.963Z,99101.06
2023-02-19T00:38:40.544Z,99092.94
2023-02-19T00:41:07.930Z,99097.41
2023-02-19T00:43:34.576Z,99093.91
2023-02-19T00:46:01.157Z,99098.84
2023-02-19T00:48:27.756Z,99091.34
2023-02-19T00:50:54.338Z,99084.63
2023-02-19T00:53:20.897Z,99076.97
2023-02-19T00:55:48.853Z,99079.69
2023-02-19T00:58:15.557Z,99080.81
2023-02-19T01:00:42.133Z,99086.53
2023-02-19T01:03:08.653Z,99090.06
2023-02-19T01:05:35.192Z,99082.59
2023-02-19T01:08:01.832Z,99082.59
2023-02-19T01:10:28.424Z,99077.59
2023-02-19T01:12:56.332Z,99074.56
2023-02-19T01:15:23.062Z,99078.09
2023-02-19T01:17:49.591Z,99077.13
2023-02-19T01:20:16.513Z,99082.56
2023-02-19T01:22:43.230Z,99069.81
2023-02-19T01:25:09.899Z,99073.31
2023-02-19T01:27:36.400Z,99060.06
2023-02-19T01:30:04.959Z,99055.25
2023-02-19T01:32:31.591Z,99053.34
2023-02-19T01:34:58.150Z,99064.19
2023-02-19T01:37:24.915Z,99056.88
2023-02-19T01:39:51.481Z,99050.03
2023-02-19T01:42:18.438Z,99045.88
2023-02-19T01:45:22.697Z,99040.44
2023-02-19T01:48:07.226Z,99040.44
2023-02-19T01:50:38.891Z,99035.81
2023-02-19T01:53:08.531Z,99041.44
2023-02-19T01:55:36.028Z,99043.97
2023-02-19T01:58:03.606Z,99040.09
2023-02-19T02:00:33.171Z,99038.00
2023-02-19T02:03:00.734Z,99031.47
2023-02-19T02:05:40.090Z,99020.03
2023-02-19T02:08:06.878Z,99018.44
2023-02-19T02:10:33.977Z,99019.41
2023-02-19T02:13:00.463Z,99010.78
2023-02-19T02:15:36.567Z,99010.78
2023-02-19T02:18:11.378Z,99014.59
2023-02-19T02:21:02.896Z,98992.13
2023-02-19T02:23:40.294Z,98987.00
2023-02-19T02:26:20.438Z,98998.97
2023-02-19T02:29:34.759Z,99001.22
2023-02-19T02:32:08.636Z,98998.69
2023-02-19T02:34:41.785Z,98998.97
2023-02-19T02:37:10.203Z,98995.16
2023-02-19T02:39:37.852Z,98991.19
2023-02-19T02:42:05.032Z,99002.34
2023-02-19T02:44:35.032Z,98986.38
2023-02-19T02:47:05.176Z,99002.34
2023-02-19T02:49:34.454Z,99002.50
2023-02-19T02:52:01.920Z,98999.47
2023-02-19T02:54:32.454Z,99007.91
2023-02-19T02:57:00.121Z,98997.88
2023-02-19T02:59:31.360Z,99004.75
2023-02-19T03:02:02.323Z,98985.13
2023-02-19T03:04:35.076Z,98996.94
2023-02-19T03:07:08.406Z,99000.13
2023-02-19T03:09:37.766Z,98978.91
2023-02-19T03:12:06.772Z,98983.06
2023-02-19T03:14:37.917Z,98972.69
2023-02-19T03:17:09.451Z,98982.09
2023-02-19T03:19:42.344Z,98977.00
2023-02-19T03:22:13.901Z,98974.28
2023-02-19T03:24:45.913Z,98966.31
2023-02-19T03:27:15.594Z,98974.78
2023-02-19T03:29:45.870Z,98968.84
2023-02-19T03:32:17.126Z,98955.63
2023-02-19T03:34:52.585Z,98958.50
2023-02-19T03:37:22.157Z,98955.78
2023-02-19T03:39:48.756Z,98972.34
2023-02-19T03:42:24.327Z,98986.88
2023-02-19T03:45:03.396Z,98971.88
2023-02-19T03:47:35.870Z,98974.28
2023-02-19T03:50:17.850Z,98970.78
2023-02-19T03:52:55.417Z,98970.31
2023-02-19T03:55:28.396Z,98965.66
2023-02-19T03:57:59.338Z,98968.06
2023-02-19T04:00:32.420Z,98962.63
2023-02-19T04:03:06.084Z,98963.13
2023-02-19T04:05:40.240Z,98969.34
2023-02-19T04:08:11.733Z,98961.22
2023-02-19T04:10:40.447Z,98964.72
2023-02-19T04:13:15.053Z,98973.03
2023-02-19T04:15:45.129Z,98975.25
2023-02-19T04:18:15.912Z,98966.31
2023-02-19T04:20:46.381Z,98973.34
2023-02-19T04:23:14.624Z,98984.19
2023-02-19T04:25:44.023Z,98989.63
2023-02-19T04:28:13.333Z,98993.75
2023-02-19T04:30:40.040Z,99009.22
2023-02-19T04:33:06.932Z,99006.00
2023-02-19T04:35:33.673Z,99003.59
2023-02-19T04:38:01.597Z,99006.66
2023-02-19T04:40:28.160Z,99014.44
2023-02-19T04:42:54.665Z,99014.59
2023-02-19T04:45:21.472Z,99029.16
2023-02-19T04:47:47.983Z,99027.06
2023-02-19T04:50:14.862Z,99032.47
2023-02-19T04:52:41.406Z,99028.47
2023-02-19T04:55:09.881Z,99040.91
2023-02-19T04:57:36.614Z,99042.31
2023-02-19T05:00:03.612Z,99039.00
2023-02-19T05:02:30.136Z,99047.44
2023-02-19T05:04:56.649Z,99056.38
2023-02-19T05:07:23.206Z,99051.75
2023-02-19T05:09:49.744Z,99054.28
2023-02-19T05:12:17.781Z,99061.28
2023-02-19T05:14:44.405Z,99052.38
2023-02-19T05:17:10.997Z,99059.56
2023-02-19T05:19:37.748Z,99070.09
2023-02-19T05:22:04.480Z,99067.41
2023-02-19T05:24:31.042Z,99069.63
2023-02-19T05:26:57.639Z,99067.72
2023-02-19T05:29:25.585Z,99065.94
2023-02-19T05:31:52.225Z,99070.91
2023-02-19T05:34:18.835Z,99076.94
2023-02-19T05:36:45.664Z,99080.94
2023-02-19T05:39:12.396Z,99085.72
2023-02-19T05:41:39.252Z,99082.72
2023-02-19T05:44:05.802Z,99081.09
2023-02-19T05:46:33.874Z,99077.59
2023-02-19T05:49:00.539Z,99078.53
2023-02-19T05:51:27.470Z,99076.44
2023-02-19T05:53:56.848Z,99089.50
2023-02-19T05:56:34.189Z,99097.19
2023-02-19T05:59:02.463Z,99097.19
2023-02-19T06:01:30.073Z,99118.56
2023-02-19T06:03:58.142Z,99130.50
2023-02-19T06:06:25.795Z,99118.84
2023-02-19T06:08:52.688Z,99128.91
2023-02-19T06:11:19.663Z,99123.16
2023-02-19T06:13:46.584Z,99131.31
2023-02-19T06:16:13.332Z,99132.72
2023-02-19T06:18:40.188Z,99144.50
2023-02-19T06:21:10.512Z,99144.22
2023-02-19T06:23:37.412Z,99159.19
2023-02-19T06:26:08.747Z,99158.72
2023-02-19T06:28:36.041Z,99164.25
2023-02-19T06:31:03.180Z,99160.72
2023-02-19T06:33:30.225Z,99162.47
2023-02-19T06:35:58.800Z,99159.56
2023-02-19T06:38:27.465Z,99164.97
2023-02-19T06:40:54.021Z,99170.72
2023-02-19T06:43:20.819Z,99174.72
2023-02-19T06:45:47.441Z,99173.13
2023-02-19T06:48:14.010Z,99183.94
2023-02-19T06:50:40.770Z,99179.63
2023-02-19T06:53:07.413Z,99184.44
2023-02-19T06:55:35.498Z,99185.25
2023-02-19T06:58:02.080Z,99181.59
2023-02-19T07:00:28.638Z,99188.31
2023-02-19T07:02:55.194Z,99192.94
2023-02-19T07:05:21.805Z,99195.78
2023-02-19T07:07:48.324Z,99198.31
2023-02-19T07:10:15.045Z,99203.72
2023-02-19T07:12:43.125Z,99208.84
2023-02-19T07:15:09.768Z,99213.16
2023-02-19T07:17:36.339Z,99226.41
2023-02-19T07:20:03.012Z,99242.16
2023-02-19T07:22:29.504Z,99234.63
2023-02-19T07:24:56.028Z,99244.66
2023-02-19T07:27:22.758Z,99250.38
2023-02-19T07:29:50.653Z,99240.69
2023-02-19T07:32:17.433Z,99249.63
2023-02-19T07:34:44.157Z,99252.31
2023-02-19T07:37:10.674Z,99249.28
2023-02-19T07:39:37.529Z,99249.50
2023-02-19T07:42:04.438Z,99255.41
2023-02-19T07:44:30.928Z,99253.19
2023-02-19T07:46:58.840Z,99262.81
2023-02-19T07:49:25.535Z,99262.97
2023-02-19T07:51:52.145Z,99264.28
2023-02-19T07:54:18.686Z,99265.88
2023-02-19T07:56:45.271Z,99273.72
2023-02-19T07:59:11.953Z,99282.03
2023-02-19T08:01:38.596Z,99282.50
2023-02-19T08:04:06.629Z,99285.22
2023-02-19T08:06:33.203Z,99306.09
2023-02-19T08:08:59.941Z,99315.34
2023-02-19T08:11:26.618Z,99321.69
2023-02-19T08:13:53.397Z,99333.84
2023-02-19T08:16:33.239Z,99343.25
2023-02-19T08:19:08.746Z,99344.88
2023-02-19T08:21:35.389Z,99343.59
2023-02-19T08:24:02.105Z,99347.88
2023-02-19T08:26:28.824Z,99343.38
2023-02-19T08:28:55.405Z,99349.59
2023-02-19T08:31:22.184Z,99360.16
2023-02-19T08:33:48.814Z,99358.25
2023-02-19T08:36:16.831Z,99359.22
2023-02-19T08:38:43.512Z,99372.19
2023-02-19T08:41:12.567Z,99366.31
2023-02-19T08:46:26.105Z,99358.78
2023-02-19T08:48:52.638Z,99371.94
2023-02-19T08:51:20.524Z,99367.69
2023-02-19T08:53:47.118Z,99363.09
2023-02-19T08:56:15.576Z,99367.91
2023-02-19T08:58:42.562Z,99371.09
2023-02-19T09:01:09.981Z,99369.00
2023-02-19T09:03:36.849Z,99384.94
2023-02-19T09:06:03.824Z,99395.03
2023-02-19T09:08:31.941Z,99385.88
2023-02-19T09:10:59.357Z,99396.44
2023-02-19T09:13:26.046Z,99401.34
2023-02-19T09:15:52.647Z,99394.44
2023-02-19T09:18:19.351Z,99406.09
2023-02-19T09:20:45.928Z,99413.13
2023-02-19T09:23:12.441Z,99408.00
2023-02-19T09:25:40.442Z,99423.03
2023-02-19T09:28:07.034Z,99419.31
2023-02-19T09:30:33.707Z,99414.53
2023-02-19T09:33:00.430Z,99426.47
2023-02-19T09:35:27.010Z,99408.59
2023-02-19T09:37:53.525Z,99402.38
2023-02-19T09:40:20.426Z,99420.47
2023-02-19T09:42:50.776Z,99414.22
2023-02-19T09:45:22.696Z,99430.97
2023-02-19T09:47:50.613Z,99433.28
2023-02-19T09:50:21.345Z,99433.00
2023-02-19T09:52:52.753Z,99428.34
2023-02-19T09:55:30.760Z,99444.00
2023-02-19T09:58:00.148Z,99432.34
2023-02-19T10:00:28.948Z,99434.34
2023-02-19T10:03:03.879Z,99433.53
2023-02-19T10:05:31.381Z,99440.78
2023-02-19T10:07:58.530Z,99451.13
2023-02-19T10:10:30.162Z,99454.63
2023-02-19T10:13:10.002Z,99468.50
2023-02-19T10:15:42.397Z,99464.47
2023-02-19T10:18:11.181Z,99467.41
2023-02-19T10:20:38.169Z,99468.28
2023-02-19T10:23:07.015Z,99464.88
2023-02-19T10:25:35.272Z,99477.69
2023-02-19T10:28:04.362Z,99479.06
2023-02-19T10:30:33.970Z,99481.53
2023-02-19T10:33:04.252Z,99493.88
2023-02-19T10:35:34.789Z,99493.72
2023-02-19T10:38:02.036Z,99503.47
2023-02-19T10:40:29.219Z,99495.44
2023-02-19T10:42:57.752Z,99508.72
2023-02-19T10:45:33.962Z,99506.31
2023-02-19T10:48:00.695Z,99513.66
2023-02-19T10:50:31.380Z,99519.50
2023-02-19T10:52:59.997Z,99529.31
2023-02-19T10:55:30.356Z,99529.25
2023-02-19T10:57:57.143Z,99537.34
2023-02-19T11:00:26.769Z,99539.31
2023-02-19T11:03:18.237Z,99531.16
2023-02-19T11:05:54.294Z,99537.31
2023-02-19T11:08:22.717Z,99542.50
2023-02-19T11:10:50.051Z,99545.13
2023-02-19T11:13:26.834Z,99558.19
2023-02-19T11:15:55.741Z,99572.09
2023-02-19T11:18:32.872Z,99580.88
2023-02-19T11:21:02.332Z,99596.22
2023-02-19T11:23:31.505Z,99583.84
2023-02-19T11:26:01.379Z,99587.13
2023-02-19T11:28:32.293Z,99598.47
2023-02-19T11:31:23.464Z,99597.78
2023-02-19T11:33:55.375Z,99597.59
2023-02-19T11:36:30.867Z,99590.88
2023-02-19T11:38:59.438Z,99574.22
2023-02-19T11:41:45.186Z,99567.88
2023-02-19T11:44:24.920Z,99561.94
2023-02-19T11:47:06.057Z,99566.66
2023-02-19T11:49:45.096Z,99573.50
2023-02-19T11:52:23.473Z,99586.44
2023-02-19T11:54:54.194Z,99598.91
2023-02-19T11:57:41.786Z,99613.38
2023-02-19T12:00:22.409Z,99623.31
2023-02-19T12:03:10.577Z,99625.22
2023-02-19T12:05:49.758Z,99619.31
2023-02-19T12:08:38.249Z,99625.41
2023-02-19T12:11:32.563Z,99628.34
2023-02-19T12:14:25.531Z,99615.47
2023-02-19T12:16:59.679Z,99627.25
2023-02-19T12:19:53.862Z,99628.03
2023-02-19T12:22:30.089Z,99627.84
2023-02-19T12:25:34.551Z,99627.31
2023-02-19T12:28:38.028Z,99617.56
2023-02-19T12:31:24.152Z,99622.81
2023-02-19T12:34:17.703Z,99618.16
2023-02-19T12:36:57.366Z,99615.47
2023-02-19T12:39:31.896Z,99611.28
2023-02-19T12:42:09.950Z,99616.50
2023-02-19T12:44:42.157Z,99618.72
2023-02-19T12:47:16.342Z,99611.69
2023-02-19T12:49:48.567Z,99606.75
2023-02-19T12:52:20.493Z,99613.38
2023-02-19T12:54:50.726Z,99610.75
2023-02-19T12:57:22.199Z,99609.69
2023-02-19T12:59:53.607Z,99613.69
2023-02-19T13:02:26.652Z,99617.72
2023-02-19T13:04:59.341Z,99622.63
2023-02-19T13:07:33.426Z,99633.69
2023-02-19T13:10:08.916Z,99633.81
2023-02-19T13:12:39.470Z,99635.41
2023-02-19T13:15:15.526Z,99632.50
2023-02-19T13:17:45.896Z,99643.41
2023-02-19T13:20:18.335Z,99647.06
2023-02-19T13:22:51.743Z,99655.47
2023-02-19T13:25:19.698Z,99669.22
2023-02-19T13:28:08.022Z,99670.91
2023-02-19T13:30:56.745Z,99669.31
2023-02-19T13:33:37.210Z,99678.06
2023-02-19T13:36:10.226Z,99681.03
2023-02-19T13:38:45.041Z,99676.94
2023-02-19T13:41:20.467Z,99681.78
2023-02-19T13:43:55.493Z,99682.19
2023-02-19T13:46:22.485Z,99689.50
2023-02-19T13:49:09.042Z,99687.78
2023-02-19T13:51:47.612Z,99691.31
2023-02-19T13:54:21.911Z,99688.13
2023-02-19T13:56:49.394Z,99689.00
2023-02-19T13:59:35.286Z,99686.56
2023-02-19T14:02:25.427Z,99687.38
2023-02-19T14:04:54.682Z,99690.13
2023-02-19T14:07:34.177Z,99697.28
2023-02-19T14:10:03.163Z,99695.84
2023-02-19T14:12:34.348Z,99695.78
2023-02-19T14:15:34.630Z,99690.75
2023-02-19T14:18:01.416Z,99696.88
2023-02-19T14:20:42.105Z,99694.25
2023-02-19T14:23:17.923Z,99690.31
2023-02-19T14:25:54.761Z,99690.59
2023-02-19T14:28:28.740Z,99700.84
2023-02-19T14:30:57.556Z,99700.84
2023-02-19T14:33:26.724Z,99701.38
2023-02-19T14:35:57.658Z,99699.00
2023-02-19T14:38:26.694Z,99688.28
2023-02-19T14:40:55.849Z,99691.28
2023-02-19T14:43:25.546Z,99694.13
2023-02-19T14:45:55.300Z,99706.47
2023-02-19T14:48:26.053Z,99705.94
2023-02-19T14:50:56.995Z,99709.84
2023-02-19T14:53:25.178Z,99707.16
2023-02-19T14:55:54.429Z,99705.69
2023-02-19T14:58:25.395Z,99702.00
2023-02-19T15:00:51.967Z,99710.31
2023-02-19T15:03:31.199Z,99716.63
2023-02-19T15:06:02.292Z,99718.59
2023-02-19T15:08:36.016Z,99714.78
2023-02-19T15:11:09.716Z,99720.75
2023-02-19T15:13:37.230Z,99721.56
2023-02-19T15:16:04.625Z,99723.06
2023-02-19T15:18:31.621Z,99720.38
2023-02-19T15:21:00.803Z,99728.59
2023-02-19T15:23:29.024Z,99726.97
2023-02-19T15:25:55.864Z,99724.47
2023-02-19T15:28:31.597Z,99726.31
2023-02-19T15:31:06.985Z,99727.94
2023-02-19T15:33:34.102Z,99723.09
2023-02-19T15:36:03.230Z,99709.63
2023-02-19T15:38:30.045Z,99710.50
2023-02-19T15:40:57.050Z,99718.69
2023-02-19T15:43:27.337Z,99726.88
2023-02-19T15:45:58.670Z,99714.66
2023-02-19T15:48:30.878Z,99709.03
2023-02-19T15:51:01.969Z,99689.06
2023-02-19T15:53:34.414Z,99678.22
2023-02-19T15:56:06.829Z,99690.66
2023-02-19T15:58:37.645Z,99698.28
2023-02-19T16:01:13.670Z,99688.53
2023-02-19T16:03:40.831Z,99692.34
2023-02-19T16:06:10.694Z,99695.66
2023-02-19T16:08:38.948Z,99703.00
2023-02-19T16:11:07.145Z,99703.91
2023-02-19T16:13:34.751Z,99700.44
2023-02-19T16:16:15.228Z,99701.84
2023-02-19T16:18:45.335Z,99711.38
2023-02-19T16:21:15.578Z,99717.13
2023-02-19T16:23:43.681Z,99716.00
2023-02-19T16:26:10.739Z,99716.34
2023-02-19T16:28:40.042Z,99715.81
2023-02-19T16:31:10.526Z,99725.34
2023-02-19T16:33:39.857Z,99731.56
2023-02-19T16:36:20.765Z,99736.75
2023-02-19T16:39:16.374Z,99744.63
2023-02-19T16:42:16.704Z,99740.59
2023-02-19T16:44:47.445Z,99731.09
2023-02-19T16:47:24.059Z,99743.81
2023-02-19T16:49:52.355Z,99742.50
2023-02-19T16:52:18.943Z,99749.81
2023-02-19T16:54:48.037Z,99760.66
2023-02-19T16:57:14.927Z,99757.16
2023-02-19T16:59:41.519Z,99764.44
2023-02-19T17:02:14.560Z,99762.81
2023-02-19T17:04:42.748Z,99775.28
2023-02-19T17:07:12.856Z,99788.81
2023-02-19T17:09:39.423Z,99791.03
2023-02-19T17:12:12.808Z,99793.47
2023-02-19T17:14:39.431Z,99796.47
2023-02-19T17:17:06.107Z,99793.75
2023-02-19T17:19:32.744Z,99788.13
2023-02-19T17:22:00.882Z,99784.91
2023-02-19T17:24:27.418Z,99791.41
2023-02-19T17:26:54.039Z,99795.19
2023-02-19T17:29:20.626Z,99797.16
2023-02-19T17:31:47.294Z,99794.19
2023-02-19T17:34:14.024Z,99802.34
2023-02-19T17:36:41.051Z,99796.16
2023-02-19T17:39:13.854Z,99803.75
2023-02-19T17:41:40.914Z,99810.56
2023-02-19T17:44:07.485Z,99815.44
2023-02-19T17:46:34.021Z,99816.78
2023-02-19T17:49:00.533Z,99827.59
2023-02-19T17:51:28.234Z,99827.31
2023-02-19T17:53:54.874Z,99835.44
2023-02-19T17:56:25.147Z,99835.44
2023-02-19T17:58:52.098Z,99840.03
2023-02-19T18:01:18.764Z,99837.34
2023-02-19T18:03:45.452Z,99845.16
2023-02-19T18:06:12.202Z,99843.28
2023-02-19T18:08:38.911Z,99830.03
2023-02-19T18:11:06.884Z,99836.53
2023-02-19T18:13:34.955Z,99827.88
2023-02-19T18:16:01.569Z,99823.28
2023-02-19T18:18:28.183Z,99826.78
2023-02-19T18:20:54.740Z,99830.88
2023-02-19T18:23:21.605Z,99819.53
2023-02-19T18:25:48.390Z,99820.88
2023-02-19T18:28:15.341Z,99827.09
2023-02-19T18:30:43.495Z,99817.13
2023-02-19T18:33:10.201Z,99822.81
2023-02-19T18:35:37.022Z,99816.59
2023-02-19T18:38:03.802Z,99812.50
2023-02-19T18:40:30.422Z,99812.28
2023-02-19T18:42:57.119Z,99810.66
2023-02-19T18:45:23.683Z,99817.97
2023-02-19T18:47:51.709Z,99819.31
2023-02-19T18:50:19.743Z,99821.75
2023-02-19T18:52:46.402Z,99815.81
2023-02-19T18:55:13.317Z,99826.41
2023-02-19T18:57:40.042Z,99817.22
2023-02-19T19:00:07.686Z,99826.13
2023-02-19T19:02:47.386Z,99828.81
2023-02-19T19:05:19.196Z,99822.88
2023-02-19T19:07:45.978Z,99831.81
2023-02-19T19:10:12.571Z,99834.78
2023-02-19T19:12:39.157Z,99833.97
2023-02-19T19:15:06.097Z,99829.38
2023-02-19T19:17:32.661Z,99826.94
2023-02-19T19:19:59.298Z,99848.28
2023-02-19T19:22:27.287Z,99849.38
2023-02-19T19:24:53.914Z,99849.09
2023-02-19T19:27:20.680Z,99845.84
2023-02-19T19:29:47.638Z,99846.88
2023-02-19T19:32:14.494Z,99848.47
2023-02-19T19:34:41.432Z,99840.59
2023-02-19T19:37:08.005Z,99843.88
2023-02-19T19:39:37.282Z,99849.53
2023-02-19T19:42:04.397Z,99839.56
2023-02-19T19:44:30.962Z,99854.09
2023-02-19T19:46:57.601Z,99842.47
2023-02-19T19:49:24.264Z,99838.66
2023-02-19T19:51:50.860Z,99846.22
2023-02-19T19:54:17.450Z,99856.47
2023-02-19T19:56:47.257Z,99854.22
2023-02-19T19:59:16.003Z,99853.97
2023-02-19T20:01:47.962Z,99857.19
2023-02-19T20:04:14.697Z,99851.22
2023-02-19T20:06:41.487Z,99847.13
2023-02-19T20:09:08.363Z,99858.25
2023-02-19T20:11:34.932Z,99856.84
2023-02-19T20:14:02.990Z,99847.38
2023-02-19T20:16:29.562Z,99853.03
2023-02-19T20:18:56.092Z,99846.03
2023-02-19T20:21:22.830Z,99848.44
2023-02-19T20:23:49.359Z,99846.22
2023-02-19T20:26:22.303Z,99852.19
2023-02-19T20:28:48.852Z,99843.78
2023-02-19T20:31:17.314Z,99851.91
2023-02-19T20:33:43.905Z,99844.31
2023-02-19T20:36:10.886Z,99842.91
2023-02-19T20:38:37.502Z,99848.84
2023-02-19T20:41:04.358Z,99842.88
2023-02-19T20:43:31.037Z,99852.38
2023-02-19T20:45:57.751Z,99861.56
2023-02-19T20:48:25.725Z,99865.09
2023-02-19T20:50:52.318Z,99871.56
2023-02-19T20:53:18.897Z,99881.56
2023-02-19T20:55:45.450Z,99880.75
2023-02-19T20:58:11.981Z,99881.56
2023-02-19T21:00:38.534Z,99887.50
2023-02-19T21:03:05.129Z,99894.28
2023-02-19T21:05:33.069Z,99902.97
2023-02-19T21:07:59.792Z,99902.34
2023-02-19T21:10:26.316Z,99906.13
2023-02-19T21:12:52.875Z,99903.75
2023-02-19T21:15:19.443Z,99909.16
2023-02-19T21:17:45.992Z,99905.44
2023-02-19T21:20:34.727Z,99903.03
2023-02-19T21:23:01.398Z,99893.31
2023-02-19T21:25:27.978Z,99891.47
2023-02-19T21:27:54.707Z,99890.19
2023-02-19T21:30:21.256Z,99914.03
2023-02-19T21:32:47.838Z,99922.44
2023-02-19T21:35:14.583Z,99915.44
2023-02-19T21:37:43.346Z,99931.19
2023-02-19T21:40:11.453Z,99925.50
2023-02-19T21:42:38.112Z,99926.06
2023-02-19T21:45:05.464Z,99916.28
2023-02-19T21:47:32.091Z,99906.59
2023-02-19T21:49:58.601Z,99916.13
2023-02-19T21:52:25.313Z,99922.88
2023-02-19T21:54:53.442Z,99915.03
2023-02-19T21:57:20.162Z,99920.72
2023-02-19T21:59:46.793Z,99931.78
2023-02-19T22:02:13.334Z,99931.78
2023-02-19T22:04:40.839Z,99927.75
2023-02-19T22:07:07.569Z,99911.25
2023-02-19T22:09:34.209Z,99930.47
2023-02-19T22:12:02.154Z,99928.31
2023-02-19T22:14:28.688Z,99925.63
2023-02-19T22:16:55.309Z,99931.06
2023-02-19T22:19:21.989Z,99918.41
2023-02-19T22:21:48.663Z,99927.59
2023-02-19T22:24:18.102Z,99935.69
2023-02-19T22:26:45.056Z,99935.44
2023-02-19T22:29:15.020Z,99941.09
2023-02-19T22:31:42.232Z,99945.13
2023-02-19T22:34:09.625Z,99940.78
2023-02-19T22:36:36.529Z,99938.63
2023-02-19T22:39:04.919Z,99942.72
2023-02-19T22:41:31.688Z,99951.34
2023-02-19T22:43:58.958Z,99946.19
2023-02-19T22:46:29.128Z,99944.84
2023-02-19T22:48:56.232Z,99946.75
2023-02-19T22:51:24.413Z,99946.19
2023-02-19T22:53:52.649Z,99956.72
2023-02-19T22:56:20.977Z,99953.75
2023-02-19T22:58:47.649Z,99969.69
2023-02-19T23:01:15.710Z,99962.41
2023-02-19T23:03:48.078Z,99960.25
2023-02-19T23:06:15.097Z,99954.81
2023-02-19T23:08:41.877Z,99952.09
2023-02-19T23:11:09.037Z,99948.59
2023-02-19T23:13:35.773Z,99946.69
2023-02-19T23:16:02.381Z,99945.31
2023-02-19T23:18:28.890Z,99939.91
2023-02-19T23:20:56.924Z,99941.53
2023-02-19T23:23:23.531Z,99950.44
2023-02-19T23:25:50.089Z,99942.06
2023-02-19T23:28:16.755Z,99940.72
2023-02-19T23:30:43.362Z,99937.75
2023-02-19T23:33:10.008Z,99926.66
2023-02-19T23:35:36.585Z,99926.16
2023-02-19T23:38:04.501Z,99918.88
2023-02-19T23:40:31.219Z,99922.94
2023-02-19T23:42:57.725Z,99917.28
2023-02-19T23:45:24.286Z,99920.00
2023-02-19T23:47:50.831Z,99914.31
2023-02-19T23:50:17.693Z,99922.44
2023-02-19T23:52:44.450Z,99920.84
2023-02-19T23:55:12.425Z,99923.28
2023-02-19T23:57:39.272Z,99922.47
